sensor_id;sensor_type;location;lat;lon;timestamp;P1;durP1;ratioP1;P2;durP2;ratioP2
69783;SDS011;57054;51.978;4.498;2023-04-03T00:02:02;0.93;;;0.93;;
69783;SDS011;57054;51.978;4.498;2023-04-03T00:04:28;1.80;;;1.10;;
69783;SDS011;57054;51.978;4.498;2023-04-03T00:06:53;0.60;;;0.60;;
69783;SDS011;57054;51.978;4.498;2023-04-03T00:09:19;1.35;;;0.90;;
69783;SDS011;57054;51.978;4.498;2023-04-03T00:11:45;1.20;;;1.10;;
69783;SDS011;57054;51.978;4.498;2023-04-03T00:14:11;0.77;;;0.75;;
69783;SDS011;57054;51.978;4.498;2023-04-03T00:16:36;0.88;;;0.88;;
69783;SDS011;57054;51.978;4.498;2023-04-03T00:19:02;1.05;;;0.80;;
69783;SDS011;57054;51.978;4.498;2023-04-03T00:21:27;0.90;;;0.70;;
69783;SDS011;57054;51.978;4.498;2023-04-03T00:23:52;0.68;;;0.68;;
69783;SDS011;57054;51.978;4.498;2023-04-03T00:26:18;1.13;;;0.80;;
69783;SDS011;57054;51.978;4.498;2023-04-03T00:28:43;1.45;;;0.75;;
69783;SDS011;57054;51.978;4.498;2023-04-03T00:31:09;0.80;;;0.70;;
69783;SDS011;57054;51.978;4.498;2023-04-03T00:33:34;1.63;;;0.88;;
69783;SDS011;57054;51.978;4.498;2023-04-03T00:36:04;0.77;;;0.77;;
69783;SDS011;57054;51.978;4.498;2023-04-03T00:38:31;2.08;;;1.15;;
69783;SDS011;57054;51.978;4.498;2023-04-03T00:40:56;0.80;;;0.68;;
69783;SDS011;57054;51.978;4.498;2023-04-03T00:43:23;0.73;;;0.73;;
69783;SDS011;57054;51.978;4.498;2023-04-03T00:45:53;1.27;;;0.90;;
69783;SDS011;57054;51.978;4.498;2023-04-03T00:48:22;1.25;;;0.77;;
69783;SDS011;57054;51.978;4.498;2023-04-03T00:50:48;1.15;;;1.00;;
69783;SDS011;57054;51.978;4.498;2023-04-03T00:53:16;1.60;;;0.75;;
69783;SDS011;57054;51.978;4.498;2023-04-03T00:55:44;2.40;;;1.00;;
69783;SDS011;57054;51.978;4.498;2023-04-03T00:58:12;0.80;;;0.80;;
69783;SDS011;57054;51.978;4.498;2023-04-03T01:00:42;0.80;;;0.80;;
69783;SDS011;57054;51.978;4.498;2023-04-03T01:03:11;0.77;;;0.77;;
69783;SDS011;57054;51.978;4.498;2023-04-03T01:05:36;1.30;;;1.05;;
69783;SDS011;57054;51.978;4.498;2023-04-03T01:08:02;1.13;;;0.85;;
69783;SDS011;57054;51.978;4.498;2023-04-03T01:10:28;0.80;;;0.80;;
69783;SDS011;57054;51.978;4.498;2023-04-03T01:12:53;0.65;;;0.65;;
69783;SDS011;57054;51.978;4.498;2023-04-03T01:15:23;1.00;;;0.90;;
69783;SDS011;57054;51.978;4.498;2023-04-03T01:17:57;0.88;;;0.75;;
69783;SDS011;57054;51.978;4.498;2023-04-03T01:23:06;0.80;;;0.80;;
69783;SDS011;57054;51.978;4.498;2023-04-03T01:25:46;1.35;;;0.90;;
69783;SDS011;57054;51.978;4.498;2023-04-03T01:28:21;1.52;;;0.80;;
69783;SDS011;57054;51.978;4.498;2023-04-03T01:30:55;1.95;;;0.77;;
69783;SDS011;57054;51.978;4.498;2023-04-03T01:33:42;0.80;;;0.70;;
69783;SDS011;57054;51.978;4.498;2023-04-03T01:36:08;1.33;;;0.98;;
69783;SDS011;57054;51.978;4.498;2023-04-03T01:38:35;0.73;;;0.70;;
69783;SDS011;57054;51.978;4.498;2023-04-03T01:41:00;0.88;;;0.82;;
69783;SDS011;57054;51.978;4.498;2023-04-03T01:43:26;1.48;;;1.00;;
69783;SDS011;57054;51.978;4.498;2023-04-03T01:45:51;0.70;;;0.70;;
69783;SDS011;57054;51.978;4.498;2023-04-03T01:48:19;1.10;;;1.00;;
69783;SDS011;57054;51.978;4.498;2023-04-03T01:50:45;1.20;;;1.10;;
69783;SDS011;57054;51.978;4.498;2023-04-03T01:53:10;1.30;;;0.70;;
69783;SDS011;57054;51.978;4.498;2023-04-03T01:55:36;1.17;;;1.00;;
69783;SDS011;57054;51.978;4.498;2023-04-03T01:58:01;1.05;;;0.90;;
69783;SDS011;57054;51.978;4.498;2023-04-03T02:00:27;0.82;;;0.82;;
69783;SDS011;57054;51.978;4.498;2023-04-03T02:02:52;0.93;;;0.75;;
69783;SDS011;57054;51.978;4.498;2023-04-03T02:05:18;1.00;;;0.90;;
69783;SDS011;57054;51.978;4.498;2023-04-03T02:07:43;0.98;;;0.90;;
69783;SDS011;57054;51.978;4.498;2023-04-03T02:10:09;0.80;;;0.80;;
69783;SDS011;57054;51.978;4.498;2023-04-03T02:12:35;1.20;;;1.10;;
69783;SDS011;57054;51.978;4.498;2023-04-03T02:15:00;2.05;;;1.00;;
69783;SDS011;57054;51.978;4.498;2023-04-03T02:17:26;1.10;;;0.98;;
69783;SDS011;57054;51.978;4.498;2023-04-03T02:19:51;1.60;;;0.77;;
69783;SDS011;57054;51.978;4.498;2023-04-03T02:22:17;1.00;;;0.90;;
69783;SDS011;57054;51.978;4.498;2023-04-03T02:24:42;1.00;;;0.98;;
69783;SDS011;57054;51.978;4.498;2023-04-03T02:27:08;0.82;;;0.82;;
69783;SDS011;57054;51.978;4.498;2023-04-03T02:29:33;1.02;;;0.80;;
69783;SDS011;57054;51.978;4.498;2023-04-03T02:31:59;1.05;;;0.95;;
69783;SDS011;57054;51.978;4.498;2023-04-03T02:34:24;1.77;;;0.90;;
69783;SDS011;57054;51.978;4.498;2023-04-03T02:36:49;1.00;;;1.00;;
69783;SDS011;57054;51.978;4.498;2023-04-03T02:39:15;1.23;;;1.13;;
69783;SDS011;57054;51.978;4.498;2023-04-03T02:41:41;0.98;;;0.88;;
69783;SDS011;57054;51.978;4.498;2023-04-03T02:44:06;2.13;;;1.00;;
69783;SDS011;57054;51.978;4.498;2023-04-03T02:46:34;0.90;;;0.80;;
69783;SDS011;57054;51.978;4.498;2023-04-03T02:48:59;0.88;;;0.88;;
69783;SDS011;57054;51.978;4.498;2023-04-03T02:51:25;0.88;;;0.88;;
69783;SDS011;57054;51.978;4.498;2023-04-03T02:53:50;1.20;;;0.98;;
69783;SDS011;57054;51.978;4.498;2023-04-03T02:56:16;1.23;;;1.00;;
69783;SDS011;57054;51.978;4.498;2023-04-03T02:58:43;1.60;;;1.00;;
69783;SDS011;57054;51.978;4.498;2023-04-03T03:01:09;1.25;;;0.90;;
69783;SDS011;57054;51.978;4.498;2023-04-03T03:03:35;0.80;;;0.80;;
69783;SDS011;57054;51.978;4.498;2023-04-03T03:06:01;2.25;;;1.27;;
69783;SDS011;57054;51.978;4.498;2023-04-03T03:08:30;0.90;;;0.90;;
69783;SDS011;57054;51.978;4.498;2023-04-03T03:10:55;1.15;;;1.05;;
69783;SDS011;57054;51.978;4.498;2023-04-03T03:13:21;0.82;;;0.82;;
69783;SDS011;57054;51.978;4.498;2023-04-03T03:15:46;1.10;;;1.00;;
69783;SDS011;57054;51.978;4.498;2023-04-03T03:18:12;2.05;;;1.00;;
69783;SDS011;57054;51.978;4.498;2023-04-03T03:20:37;1.05;;;0.95;;
69783;SDS011;57054;51.978;4.498;2023-04-03T03:23:02;1.45;;;0.95;;
69783;SDS011;57054;51.978;4.498;2023-04-03T03:25:28;1.45;;;1.15;;
69783;SDS011;57054;51.978;4.498;2023-04-03T03:27:53;1.20;;;1.10;;
69783;SDS011;57054;51.978;4.498;2023-04-03T03:30:19;0.90;;;0.80;;
69783;SDS011;57054;51.978;4.498;2023-04-03T03:32:44;0.95;;;0.95;;
69783;SDS011;57054;51.978;4.498;2023-04-03T03:35:10;1.77;;;1.10;;
69783;SDS011;57054;51.978;4.498;2023-04-03T03:37:35;1.13;;;1.05;;
69783;SDS011;57054;51.978;4.498;2023-04-03T03:40:01;0.93;;;0.93;;
69783;SDS011;57054;51.978;4.498;2023-04-03T03:42:26;1.80;;;0.90;;
69783;SDS011;57054;51.978;4.498;2023-04-03T03:44:51;1.45;;;0.85;;
69783;SDS011;57054;51.978;4.498;2023-04-03T03:47:17;0.80;;;0.80;;
69783;SDS011;57054;51.978;4.498;2023-04-03T03:49:42;1.10;;;0.85;;
69783;SDS011;57054;51.978;4.498;2023-04-03T03:52:08;1.33;;;1.20;;
69783;SDS011;57054;51.978;4.498;2023-04-03T03:54:35;1.10;;;1.05;;
69783;SDS011;57054;51.978;4.498;2023-04-03T03:57:01;1.52;;;1.10;;
69783;SDS011;57054;51.978;4.498;2023-04-03T03:59:27;0.90;;;0.75;;
69783;SDS011;57054;51.978;4.498;2023-04-03T04:01:52;0.80;;;0.80;;
69783;SDS011;57054;51.978;4.498;2023-04-03T04:04:17;1.23;;;1.15;;
69783;SDS011;57054;51.978;4.498;2023-04-03T04:06:43;1.55;;;1.10;;
69783;SDS011;57054;51.978;4.498;2023-04-03T04:09:09;1.35;;;1.00;;
69783;SDS011;57054;51.978;4.498;2023-04-03T04:11:34;1.05;;;0.95;;
69783;SDS011;57054;51.978;4.498;2023-04-03T04:14:00;1.27;;;1.00;;
69783;SDS011;57054;51.978;4.498;2023-04-03T04:16:25;1.15;;;1.05;;
69783;SDS011;57054;51.978;4.498;2023-04-03T04:18:50;1.05;;;1.05;;
69783;SDS011;57054;51.978;4.498;2023-04-03T04:21:16;1.30;;;1.15;;
69783;SDS011;57054;51.978;4.498;2023-04-03T04:23:41;1.20;;;1.10;;
69783;SDS011;57054;51.978;4.498;2023-04-03T04:26:06;1.40;;;1.30;;
69783;SDS011;57054;51.978;4.498;2023-04-03T04:28:32;1.20;;;1.10;;
69783;SDS011;57054;51.978;4.498;2023-04-03T04:30:57;1.40;;;1.13;;
69783;SDS011;57054;51.978;4.498;2023-04-03T04:33:23;0.95;;;0.95;;
69783;SDS011;57054;51.978;4.498;2023-04-03T04:35:48;1.52;;;1.27;;
69783;SDS011;57054;51.978;4.498;2023-04-03T04:38:14;1.30;;;1.20;;
69783;SDS011;57054;51.978;4.498;2023-04-03T04:40:39;1.77;;;0.85;;
69783;SDS011;57054;51.978;4.498;2023-04-03T04:43:05;0.95;;;0.95;;
69783;SDS011;57054;51.978;4.498;2023-04-03T04:45:31;0.88;;;0.88;;
69783;SDS011;57054;51.978;4.498;2023-04-03T04:47:56;1.20;;;1.10;;
69783;SDS011;57054;51.978;4.498;2023-04-03T04:50:22;1.20;;;1.10;;
69783;SDS011;57054;51.978;4.498;2023-04-03T04:52:47;1.42;;;1.10;;
69783;SDS011;57054;51.978;4.498;2023-04-03T04:55:12;2.38;;;1.30;;
69783;SDS011;57054;51.978;4.498;2023-04-03T04:57:38;1.40;;;1.17;;
69783;SDS011;57054;51.978;4.498;2023-04-03T05:00:03;1.20;;;1.10;;
69783;SDS011;57054;51.978;4.498;2023-04-03T05:02:29;3.05;;;1.30;;
69783;SDS011;57054;51.978;4.498;2023-04-03T05:04:55;1.40;;;1.23;;
69783;SDS011;57054;51.978;4.498;2023-04-03T05:07:21;1.27;;;1.17;;
69783;SDS011;57054;51.978;4.498;2023-04-03T05:09:47;1.75;;;0.98;;
69783;SDS011;57054;51.978;4.498;2023-04-03T05:12:12;1.48;;;1.38;;
69783;SDS011;57054;51.978;4.498;2023-04-03T05:14:38;1.67;;;1.30;;
69783;SDS011;57054;51.978;4.498;2023-04-03T05:17:03;1.13;;;1.05;;
69783;SDS011;57054;51.978;4.498;2023-04-03T05:19:28;1.42;;;1.23;;
69783;SDS011;57054;51.978;4.498;2023-04-03T05:21:54;1.63;;;1.30;;
69783;SDS011;57054;51.978;4.498;2023-04-03T05:24:19;1.80;;;1.38;;
69783;SDS011;57054;51.978;4.498;2023-04-03T05:26:45;1.70;;;1.60;;
69783;SDS011;57054;51.978;4.498;2023-04-03T05:29:10;1.27;;;1.17;;
69783;SDS011;57054;51.978;4.498;2023-04-03T05:31:36;1.63;;;1.52;;
69783;SDS011;57054;51.978;4.498;2023-04-03T05:34:02;1.42;;;1.33;;
69783;SDS011;57054;51.978;4.498;2023-04-03T05:36:27;1.75;;;1.40;;
69783;SDS011;57054;51.978;4.498;2023-04-03T05:38:53;3.20;;;1.40;;
69783;SDS011;57054;51.978;4.498;2023-04-03T05:41:21;1.52;;;1.27;;
69783;SDS011;57054;51.978;4.498;2023-04-03T05:43:46;1.90;;;1.50;;
69783;SDS011;57054;51.978;4.498;2023-04-03T05:46:12;1.52;;;1.42;;
69783;SDS011;57054;51.978;4.498;2023-04-03T05:48:39;2.03;;;1.48;;
69783;SDS011;57054;51.978;4.498;2023-04-03T05:51:05;1.98;;;1.83;;
69783;SDS011;57054;51.978;4.498;2023-04-03T05:53:33;2.03;;;1.50;;
69783;SDS011;57054;51.978;4.498;2023-04-03T05:56:02;1.75;;;1.65;;
69783;SDS011;57054;51.978;4.498;2023-04-03T05:58:28;1.73;;;1.50;;
69783;SDS011;57054;51.978;4.498;2023-04-03T06:00:53;2.00;;;1.50;;
69783;SDS011;57054;51.978;4.498;2023-04-03T06:03:18;1.90;;;1.60;;
69783;SDS011;57054;51.978;4.498;2023-04-03T06:05:47;1.42;;;1.33;;
69783;SDS011;57054;51.978;4.498;2023-04-03T06:08:12;2.15;;;1.52;;
69783;SDS011;57054;51.978;4.498;2023-04-03T06:10:39;2.67;;;1.80;;
69783;SDS011;57054;51.978;4.498;2023-04-03T06:13:05;2.38;;;2.17;;
69783;SDS011;57054;51.978;4.498;2023-04-03T06:15:34;2.97;;;1.75;;
69783;SDS011;57054;51.978;4.498;2023-04-03T06:18:00;1.65;;;1.55;;
69783;SDS011;57054;51.978;4.498;2023-04-03T06:20:25;2.60;;;1.67;;
69783;SDS011;57054;51.978;4.498;2023-04-03T06:22:51;2.22;;;1.80;;
69783;SDS011;57054;51.978;4.498;2023-04-03T06:25:17;3.03;;;1.85;;
69783;SDS011;57054;51.978;4.498;2023-04-03T06:27:44;3.40;;;1.90;;
69783;SDS011;57054;51.978;4.498;2023-04-03T06:30:12;2.42;;;1.70;;
69783;SDS011;57054;51.978;4.498;2023-04-03T06:32:40;1.70;;;1.60;;
69783;SDS011;57054;51.978;4.498;2023-04-03T06:35:08;2.60;;;1.85;;
69783;SDS011;57054;51.978;4.498;2023-04-03T06:37:33;2.03;;;1.83;;
69783;SDS011;57054;51.978;4.498;2023-04-03T06:40:00;1.73;;;1.63;;
69783;SDS011;57054;51.978;4.498;2023-04-03T06:42:26;2.90;;;2.00;;
69783;SDS011;57054;51.978;4.498;2023-04-03T06:44:51;2.35;;;1.60;;
69783;SDS011;57054;51.978;4.498;2023-04-03T06:47:17;5.50;;;1.92;;
69783;SDS011;57054;51.978;4.498;2023-04-03T06:49:43;1.60;;;1.50;;
69783;SDS011;57054;51.978;4.498;2023-04-03T06:52:10;2.75;;;1.60;;
69783;SDS011;57054;51.978;4.498;2023-04-03T06:54:37;3.28;;;1.70;;
69783;SDS011;57054;51.978;4.498;2023-04-03T06:57:03;1.73;;;1.50;;
69783;SDS011;57054;51.978;4.498;2023-04-03T06:59:28;3.10;;;1.70;;
69783;SDS011;57054;51.978;4.498;2023-04-03T07:01:54;4.43;;;1.80;;
69783;SDS011;57054;51.978;4.498;2023-04-03T07:04:20;2.50;;;2.17;;
69783;SDS011;57054;51.978;4.498;2023-04-03T07:06:46;2.22;;;1.75;;
69783;SDS011;57054;51.978;4.498;2023-04-03T07:09:13;2.55;;;1.73;;
69783;SDS011;57054;51.978;4.498;2023-04-03T07:11:39;2.47;;;1.60;;
69783;SDS011;57054;51.978;4.498;2023-04-03T07:14:05;2.90;;;1.85;;
69783;SDS011;57054;51.978;4.498;2023-04-03T07:16:32;4.93;;;1.88;;
69783;SDS011;57054;51.978;4.498;2023-04-03T07:18:59;1.95;;;1.50;;
69783;SDS011;57054;51.978;4.498;2023-04-03T07:21:26;2.28;;;1.85;;
69783;SDS011;57054;51.978;4.498;2023-04-03T07:23:52;3.05;;;1.55;;
69783;SDS011;57054;51.978;4.498;2023-04-03T07:26:19;2.50;;;1.50;;
69783;SDS011;57054;51.978;4.498;2023-04-03T07:28:58;2.88;;;1.50;;
69783;SDS011;57054;51.978;4.498;2023-04-03T07:31:24;3.05;;;1.75;;
69783;SDS011;57054;51.978;4.498;2023-04-03T07:33:50;1.83;;;1.70;;
69783;SDS011;57054;51.978;4.498;2023-04-03T07:36:17;4.82;;;2.10;;
69783;SDS011;57054;51.978;4.498;2023-04-03T07:38:45;4.05;;;1.77;;
69783;SDS011;57054;51.978;4.498;2023-04-03T07:41:15;2.45;;;1.50;;
69783;SDS011;57054;51.978;4.498;2023-04-03T07:43:42;3.30;;;1.95;;
69783;SDS011;57054;51.978;4.498;2023-04-03T07:46:08;2.90;;;1.70;;
69783;SDS011;57054;51.978;4.498;2023-04-03T07:48:34;2.05;;;1.42;;
69783;SDS011;57054;51.978;4.498;2023-04-03T07:51:02;1.92;;;1.73;;
69783;SDS011;57054;51.978;4.498;2023-04-03T07:55:59;2.95;;;1.65;;
69783;SDS011;57054;51.978;4.498;2023-04-03T07:58:26;1.63;;;1.35;;
69783;SDS011;57054;51.978;4.498;2023-04-03T08:00:52;2.22;;;1.63;;
69783;SDS011;57054;51.978;4.498;2023-04-03T08:03:17;2.38;;;1.75;;
69783;SDS011;57054;51.978;4.498;2023-04-03T08:05:44;4.13;;;1.77;;
69783;SDS011;57054;51.978;4.498;2023-04-03T08:08:12;4.13;;;1.70;;
69783;SDS011;57054;51.978;4.498;2023-04-03T08:10:40;4.35;;;2.08;;
69783;SDS011;57054;51.978;4.498;2023-04-03T08:13:07;5.80;;;2.00;;
69783;SDS011;57054;51.978;4.498;2023-04-03T08:15:33;3.95;;;2.05;;
69783;SDS011;57054;51.978;4.498;2023-04-03T08:18:00;3.45;;;1.98;;
69783;SDS011;57054;51.978;4.498;2023-04-03T08:20:25;4.18;;;2.10;;
69783;SDS011;57054;51.978;4.498;2023-04-03T08:22:52;1.98;;;1.52;;
69783;SDS011;57054;51.978;4.498;2023-04-03T08:25:17;6.18;;;2.10;;
69783;SDS011;57054;51.978;4.498;2023-04-03T08:27:43;2.50;;;1.50;;
69783;SDS011;57054;51.978;4.498;2023-04-03T08:30:09;6.30;;;1.88;;
69783;SDS011;57054;51.978;4.498;2023-04-03T08:32:36;4.53;;;1.40;;
69783;SDS011;57054;51.978;4.498;2023-04-03T08:35:02;3.25;;;1.60;;
69783;SDS011;57054;51.978;4.498;2023-04-03T08:37:28;3.35;;;1.67;;
69783;SDS011;57054;51.978;4.498;2023-04-03T08:39:54;3.45;;;1.60;;
69783;SDS011;57054;51.978;4.498;2023-04-03T08:42:31;6.72;;;1.83;;
69783;SDS011;57054;51.978;4.498;2023-04-03T08:48:06;2.35;;;1.38;;
69783;SDS011;57054;51.978;4.498;2023-04-03T08:50:38;3.42;;;1.50;;
69783;SDS011;57054;51.978;4.498;2023-04-03T08:53:06;4.13;;;1.50;;
69783;SDS011;57054;51.978;4.498;2023-04-03T08:55:46;3.25;;;1.98;;
69783;SDS011;57054;51.978;4.498;2023-04-03T08:58:18;4.13;;;1.65;;
69783;SDS011;57054;51.978;4.498;2023-04-03T09:01:24;4.35;;;1.83;;
69783;SDS011;57054;51.978;4.498;2023-04-03T09:03:46;1.83;;;1.13;;
69783;SDS011;57054;51.978;4.498;2023-04-03T09:06:22;3.53;;;1.42;;
69783;SDS011;57054;51.978;4.498;2023-04-03T09:14:38;1.60;;;1.40;;
69783;SDS011;57054;51.978;4.498;2023-04-03T09:20:16;2.65;;;1.13;;
69783;SDS011;57054;51.978;4.498;2023-04-03T09:22:48;2.30;;;1.27;;
69783;SDS011;57054;51.978;4.498;2023-04-03T09:27:44;1.80;;;1.07;;
69783;SDS011;57054;51.978;4.498;2023-04-03T09:30:16;2.42;;;1.05;;
69783;SDS011;57054;51.978;4.498;2023-04-03T09:32:47;2.22;;;1.10;;
69783;SDS011;57054;51.978;4.498;2023-04-03T09:40:47;3.03;;;1.63;;
69783;SDS011;57054;51.978;4.498;2023-04-03T09:45:43;1.10;;;0.73;;
69783;SDS011;57054;51.978;4.498;2023-04-03T09:50:41;4.10;;;1.10;;
69783;SDS011;57054;51.978;4.498;2023-04-03T09:53:27;2.00;;;0.93;;
69783;SDS011;57054;51.978;4.498;2023-04-03T09:55:59;1.60;;;0.88;;
69783;SDS011;57054;51.978;4.498;2023-04-03T09:58:29;3.17;;;1.10;;
69783;SDS011;57054;51.978;4.498;2023-04-03T10:01:05;1.42;;;0.90;;
69783;SDS011;57054;51.978;4.498;2023-04-03T10:03:32;3.03;;;0.88;;
69783;SDS011;57054;51.978;4.498;2023-04-03T10:06:00;1.23;;;0.90;;
69783;SDS011;57054;51.978;4.498;2023-04-03T10:08:29;1.92;;;1.10;;
69783;SDS011;57054;51.978;4.498;2023-04-03T10:11:12;2.95;;;0.73;;
69783;SDS011;57054;51.978;4.498;2023-04-03T10:13:56;1.75;;;0.70;;
69783;SDS011;57054;51.978;4.498;2023-04-03T10:16:29;1.23;;;1.02;;
69783;SDS011;57054;51.978;4.498;2023-04-03T10:24:52;2.45;;;0.68;;
69783;SDS011;57054;51.978;4.498;2023-04-03T10:30:09;1.08;;;0.80;;
69783;SDS011;57054;51.978;4.498;2023-04-03T10:38:15;1.45;;;0.80;;
69783;SDS011;57054;51.978;4.498;2023-04-03T10:40:57;1.40;;;0.68;;
69783;SDS011;57054;51.978;4.498;2023-04-03T10:43:36;1.10;;;0.70;;
69783;SDS011;57054;51.978;4.498;2023-04-03T10:46:16;1.02;;;0.60;;
69783;SDS011;57054;51.978;4.498;2023-04-03T10:51:48;3.97;;;0.70;;
69783;SDS011;57054;51.978;4.498;2023-04-03T10:54:39;0.65;;;0.50;;
69783;SDS011;57054;51.978;4.498;2023-04-03T10:57:23;2.25;;;0.73;;
69783;SDS011;57054;51.978;4.498;2023-04-03T10:59:55;0.88;;;0.60;;
69783;SDS011;57054;51.978;4.498;2023-04-03T11:02:28;1.13;;;0.60;;
69783;SDS011;57054;51.978;4.498;2023-04-03T11:05:00;1.08;;;0.50;;
69783;SDS011;57054;51.978;4.498;2023-04-03T11:07:32;0.95;;;0.80;;
69783;SDS011;57054;51.978;4.498;2023-04-03T11:10:03;2.35;;;0.60;;
69783;SDS011;57054;51.978;4.498;2023-04-03T11:15:03;0.87;;;0.77;;
69783;SDS011;57054;51.978;4.498;2023-04-03T11:17:35;0.60;;;0.60;;
69783;SDS011;57054;51.978;4.498;2023-04-03T11:20:16;0.57;;;0.50;;
69783;SDS011;57054;51.978;4.498;2023-04-03T11:22:53;1.77;;;0.82;;
69783;SDS011;57054;51.978;4.498;2023-04-03T11:25:24;1.13;;;0.57;;
69783;SDS011;57054;51.978;4.498;2023-04-03T11:36:03;1.00;;;0.57;;
69783;SDS011;57054;51.978;4.498;2023-04-03T11:38:35;4.38;;;0.70;;
69783;SDS011;57054;51.978;4.498;2023-04-03T11:41:06;2.72;;;0.57;;
69783;SDS011;57054;51.978;4.498;2023-04-03T11:43:33;3.40;;;0.40;;
69783;SDS011;57054;51.978;4.498;2023-04-03T11:46:06;0.38;;;0.38;;
69783;SDS011;57054;51.978;4.498;2023-04-03T11:53:41;0.28;;;0.28;;
69783;SDS011;57054;51.978;4.498;2023-04-03T11:59:37;7.70;;;1.10;;
69783;SDS011;57054;51.978;4.498;2023-04-03T12:01:51;0.40;;;0.30;;
69783;SDS011;57054;51.978;4.498;2023-04-03T12:04:18;0.57;;;0.38;;
69783;SDS011;57054;51.978;4.498;2023-04-03T12:12:01;1.05;;;0.60;;
69783;SDS011;57054;51.978;4.498;2023-04-03T12:15:22;1.60;;;0.50;;
69783;SDS011;57054;51.978;4.498;2023-04-03T12:17:48;1.08;;;0.50;;
69783;SDS011;57054;51.978;4.498;2023-04-03T12:21:15;1.13;;;0.40;;
69783;SDS011;57054;51.978;4.498;2023-04-03T12:23:34;0.75;;;0.68;;
69783;SDS011;57054;51.978;4.498;2023-04-03T12:29:15;0.43;;;0.40;;
69783;SDS011;57054;51.978;4.498;2023-04-03T12:40:50;0.70;;;0.60;;
69783;SDS011;57054;51.978;4.498;2023-04-03T12:48:53;1.45;;;0.75;;
69783;SDS011;57054;51.978;4.498;2023-04-03T12:51:28;4.30;;;0.57;;
69783;SDS011;57054;51.978;4.498;2023-04-03T12:54:01;2.05;;;0.90;;
69783;SDS011;57054;51.978;4.498;2023-04-03T12:56:31;1.38;;;0.73;;
69783;SDS011;57054;51.978;4.498;2023-04-03T12:59:43;1.77;;;0.60;;
69783;SDS011;57054;51.978;4.498;2023-04-03T13:02:00;1.70;;;0.70;;
69783;SDS011;57054;51.978;4.498;2023-04-03T13:04:26;1.10;;;0.80;;
69783;SDS011;57054;51.978;4.498;2023-04-03T13:06:53;3.92;;;0.60;;
69783;SDS011;57054;51.978;4.498;2023-04-03T13:09:21;0.52;;;0.52;;
69783;SDS011;57054;51.978;4.498;2023-04-03T13:11:51;1.10;;;0.60;;
69783;SDS011;57054;51.978;4.498;2023-04-03T13:14:25;1.13;;;0.70;;
69783;SDS011;57054;51.978;4.498;2023-04-03T13:16:54;1.02;;;0.60;;
69783;SDS011;57054;51.978;4.498;2023-04-03T13:19:38;2.60;;;0.90;;
69783;SDS011;57054;51.978;4.498;2023-04-03T13:24:52;0.77;;;0.63;;
69783;SDS011;57054;51.978;4.498;2023-04-03T13:27:20;5.03;;;0.75;;
69783;SDS011;57054;51.978;4.498;2023-04-03T13:29:50;2.05;;;0.80;;
69783;SDS011;57054;51.978;4.498;2023-04-03T13:32:24;1.35;;;0.77;;
69783;SDS011;57054;51.978;4.498;2023-04-03T13:34:51;2.63;;;1.00;;
69783;SDS011;57054;51.978;4.498;2023-04-03T13:40:08;1.00;;;0.80;;
69783;SDS011;57054;51.978;4.498;2023-04-03T13:42:37;1.63;;;0.65;;
69783;SDS011;57054;51.978;4.498;2023-04-03T13:45:22;0.90;;;0.70;;
69783;SDS011;57054;51.978;4.498;2023-04-03T13:47:54;1.05;;;0.90;;
69783;SDS011;57054;51.978;4.498;2023-04-03T13:50:55;2.05;;;0.85;;
69783;SDS011;57054;51.978;4.498;2023-04-03T13:54:00;1.10;;;1.00;;
69783;SDS011;57054;51.978;4.498;2023-04-03T13:56:39;1.95;;;0.68;;
69783;SDS011;57054;51.978;4.498;2023-04-03T14:07:12;1.58;;;1.00;;
69783;SDS011;57054;51.978;4.498;2023-04-03T14:09:39;0.98;;;0.75;;
69783;SDS011;57054;51.978;4.498;2023-04-03T14:12:06;2.15;;;0.75;;
69783;SDS011;57054;51.978;4.498;2023-04-03T14:14:43;0.63;;;0.63;;
69783;SDS011;57054;51.978;4.498;2023-04-03T14:17:19;2.08;;;0.80;;
69783;SDS011;57054;51.978;4.498;2023-04-03T14:19:46;0.98;;;0.70;;
69783;SDS011;57054;51.978;4.498;2023-04-03T14:22:18;1.00;;;0.63;;
69783;SDS011;57054;51.978;4.498;2023-04-03T14:24:49;3.25;;;1.08;;
69783;SDS011;57054;51.978;4.498;2023-04-03T14:27:19;1.65;;;0.90;;
69783;SDS011;57054;51.978;4.498;2023-04-03T14:29:47;1.52;;;0.77;;
69783;SDS011;57054;51.978;4.498;2023-04-03T14:32:14;1.17;;;0.73;;
69783;SDS011;57054;51.978;4.498;2023-04-03T14:34:42;1.23;;;0.90;;
69783;SDS011;57054;51.978;4.498;2023-04-03T14:37:12;2.88;;;1.00;;
69783;SDS011;57054;51.978;4.498;2023-04-03T14:39:39;0.93;;;0.70;;
69783;SDS011;57054;51.978;4.498;2023-04-03T14:42:05;2.38;;;0.75;;
69783;SDS011;57054;51.978;4.498;2023-04-03T14:44:31;2.45;;;1.05;;
69783;SDS011;57054;51.978;4.498;2023-04-03T14:46:57;2.90;;;0.98;;
69783;SDS011;57054;51.978;4.498;2023-04-03T14:49:24;1.92;;;1.15;;
69783;SDS011;57054;51.978;4.498;2023-04-03T14:51:51;1.08;;;0.82;;
69783;SDS011;57054;51.978;4.498;2023-04-03T14:54:20;1.92;;;0.90;;
69783;SDS011;57054;51.978;4.498;2023-04-03T14:56:51;0.60;;;0.60;;
69783;SDS011;57054;51.978;4.498;2023-04-03T14:59:17;2.22;;;1.05;;
69783;SDS011;57054;51.978;4.498;2023-04-03T15:01:45;1.97;;;1.00;;
69783;SDS011;57054;51.978;4.498;2023-04-03T15:04:20;2.50;;;0.90;;
69783;SDS011;57054;51.978;4.498;2023-04-03T15:06:46;1.27;;;0.80;;
69783;SDS011;57054;51.978;4.498;2023-04-03T15:09:23;2.88;;;1.00;;
69783;SDS011;57054;51.978;4.498;2023-04-03T15:11:51;1.23;;;0.80;;
69783;SDS011;57054;51.978;4.498;2023-04-03T15:14:20;1.95;;;0.90;;
69783;SDS011;57054;51.978;4.498;2023-04-03T15:16:48;2.10;;;0.90;;
69783;SDS011;57054;51.978;4.498;2023-04-03T15:19:14;1.67;;;1.05;;
69783;SDS011;57054;51.978;4.498;2023-04-03T15:21:41;2.78;;;1.05;;
69783;SDS011;57054;51.978;4.498;2023-04-03T15:24:08;3.03;;;1.00;;
69783;SDS011;57054;51.978;4.498;2023-04-03T15:26:35;4.72;;;1.17;;
69783;SDS011;57054;51.978;4.498;2023-04-03T15:29:03;1.58;;;0.88;;
69783;SDS011;57054;51.978;4.498;2023-04-03T15:31:29;1.70;;;1.00;;
69783;SDS011;57054;51.978;4.498;2023-04-03T15:33:56;1.10;;;0.70;;
69783;SDS011;57054;51.978;4.498;2023-04-03T15:36:23;1.27;;;0.70;;
69783;SDS011;57054;51.978;4.498;2023-04-03T15:38:50;1.10;;;0.80;;
69783;SDS011;57054;51.978;4.498;2023-04-03T15:41:17;1.20;;;0.85;;
69783;SDS011;57054;51.978;4.498;2023-04-03T15:43:44;2.67;;;1.05;;
69783;SDS011;57054;51.978;4.498;2023-04-03T15:46:09;3.17;;;1.00;;
69783;SDS011;57054;51.978;4.498;2023-04-03T15:48:35;1.20;;;0.85;;
69783;SDS011;57054;51.978;4.498;2023-04-03T15:51:02;0.93;;;0.82;;
69783;SDS011;57054;51.978;4.498;2023-04-03T15:53:28;1.48;;;0.88;;
69783;SDS011;57054;51.978;4.498;2023-04-03T15:55:53;1.13;;;1.00;;
69783;SDS011;57054;51.978;4.498;2023-04-03T15:58:22;0.73;;;0.70;;
69783;SDS011;57054;51.978;4.498;2023-04-03T16:00:48;2.20;;;0.80;;
69783;SDS011;57054;51.978;4.498;2023-04-03T16:03:16;1.95;;;1.00;;
69783;SDS011;57054;51.978;4.498;2023-04-03T16:05:43;1.77;;;1.10;;
69783;SDS011;57054;51.978;4.498;2023-04-03T16:08:09;2.47;;;0.90;;
69783;SDS011;57054;51.978;4.498;2023-04-03T16:10:35;2.28;;;1.30;;
69783;SDS011;57054;51.978;4.498;2023-04-03T16:13:02;0.90;;;0.90;;
69783;SDS011;57054;51.978;4.498;2023-04-03T16:15:30;1.13;;;0.85;;
69783;SDS011;57054;51.978;4.498;2023-04-03T16:17:59;1.63;;;1.00;;
69783;SDS011;57054;51.978;4.498;2023-04-03T16:20:26;2.17;;;0.98;;
69783;SDS011;57054;51.978;4.498;2023-04-03T16:22:56;3.17;;;0.90;;
69783;SDS011;57054;51.978;4.498;2023-04-03T16:25:26;1.95;;;0.80;;
69783;SDS011;57054;51.978;4.498;2023-04-03T16:27:55;0.90;;;0.90;;
69783;SDS011;57054;51.978;4.498;2023-04-03T16:30:22;1.88;;;1.30;;
69783;SDS011;57054;51.978;4.498;2023-04-03T16:32:49;2.92;;;1.20;;
69783;SDS011;57054;51.978;4.498;2023-04-03T16:37:44;1.92;;;0.77;;
69783;SDS011;57054;51.978;4.498;2023-04-03T16:40:09;1.25;;;1.10;;
69783;SDS011;57054;51.978;4.498;2023-04-03T16:42:37;2.63;;;0.85;;